sensor_id;sensor_type;location;lat;lon;timestamp;P1;durP1;ratioP1;P2;durP2;ratioP2
49566;SDS011;35472;50.514;30.448;2022-10-17T00:00:45;9.20;;;5.95;;
49566;SDS011;35472;50.514;30.448;2022-10-17T00:03:11;7.80;;;5.82;;
49566;SDS011;35472;50.514;30.448;2022-10-17T00:05:40;7.40;;;5.28;;
49566;SDS011;35472;50.514;30.448;2022-10-17T00:08:07;10.00;;;5.72;;
49566;SDS011;35472;50.514;30.448;2022-10-17T00:10:34;8.43;;;5.95;;
49566;SDS011;35472;50.514;30.448;2022-10-17T00:12:59;11.18;;;5.55;;
49566;SDS011;35472;50.514;30.448;2022-10-17T00:15:24;10.80;;;6.65;;
49566;SDS011;35472;50.514;30.448;2022-10-17T00:17:50;9.75;;;5.35;;
49566;SDS011;35472;50.514;30.448;2022-10-17T00:20:15;11.07;;;5.95;;
49566;SDS011;35472;50.514;30.448;2022-10-17T00:22:41;9.90;;;5.30;;
49566;SDS011;35472;50.514;30.448;2022-10-17T00:25:07;10.05;;;5.35;;
49566;SDS011;35472;50.514;30.448;2022-10-17T00:27:34;12.95;;;6.35;;
49566;SDS011;35472;50.514;30.448;2022-10-17T00:30:00;11.65;;;6.05;;
49566;SDS011;35472;50.514;30.448;2022-10-17T00:32:26;7.57;;;6.03;;
49566;SDS011;35472;50.514;30.448;2022-10-17T00:34:51;8.85;;;5.70;;
49566;SDS011;35472;50.514;30.448;2022-10-17T00:37:16;8.90;;;5.47;;
49566;SDS011;35472;50.514;30.448;2022-10-17T00:39:42;9.23;;;5.63;;
49566;SDS011;35472;50.514;30.448;2022-10-17T00:42:09;12.85;;;6.40;;
49566;SDS011;35472;50.514;30.448;2022-10-17T00:47:05;7.50;;;5.93;;
49566;SDS011;35472;50.514;30.448;2022-10-17T00:49:38;11.13;;;6.13;;
49566;SDS011;35472;50.514;30.448;2022-10-17T00:52:09;9.43;;;5.90;;
49566;SDS011;35472;50.514;30.448;2022-10-17T00:57:08;7.72;;;5.68;;
49566;SDS011;35472;50.514;30.448;2022-10-17T00:59:34;7.85;;;6.28;;
49566;SDS011;35472;50.514;30.448;2022-10-17T01:02:02;7.93;;;5.35;;
49566;SDS011;35472;50.514;30.448;2022-10-17T01:04:39;7.95;;;5.65;;
49566;SDS011;35472;50.514;30.448;2022-10-17T01:07:07;9.50;;;5.70;;
49566;SDS011;35472;50.514;30.448;2022-10-17T01:09:33;7.85;;;5.65;;
49566;SDS011;35472;50.514;30.448;2022-10-17T01:14:39;6.80;;;4.03;;
49566;SDS011;35472;50.514;30.448;2022-10-17T01:26:09;8.35;;;4.85;;
49566;SDS011;35472;50.514;30.448;2022-10-17T01:29:10;8.07;;;5.43;;
49566;SDS011;35472;50.514;30.448;2022-10-17T01:31:59;9.32;;;5.00;;
49566;SDS011;35472;50.514;30.448;2022-10-17T01:34:42;7.78;;;5.10;;
49566;SDS011;35472;50.514;30.448;2022-10-17T01:37:18;9.82;;;5.95;;
49566;SDS011;35472;50.514;30.448;2022-10-17T01:39:52;11.77;;;5.65;;
49566;SDS011;35472;50.514;30.448;2022-10-17T01:42:35;8.38;;;5.82;;
49566;SDS011;35472;50.514;30.448;2022-10-17T01:45:16;7.07;;;4.40;;
49566;SDS011;35472;50.514;30.448;2022-10-17T01:47:47;6.43;;;4.70;;
49566;SDS011;35472;50.514;30.448;2022-10-17T01:50:17;10.10;;;5.00;;
49566;SDS011;35472;50.514;30.448;2022-10-17T01:52:49;6.75;;;5.00;;
49566;SDS011;35472;50.514;30.448;2022-10-17T01:55:28;17.77;;;5.50;;
49566;SDS011;35472;50.514;30.448;2022-10-17T01:57:58;5.72;;;4.88;;
49566;SDS011;35472;50.514;30.448;2022-10-17T02:00:27;7.53;;;5.22;;
49566;SDS011;35472;50.514;30.448;2022-10-17T02:02:59;8.88;;;4.60;;
49566;SDS011;35472;50.514;30.448;2022-10-17T02:05:30;12.13;;;4.85;;
49566;SDS011;35472;50.514;30.448;2022-10-17T02:07:57;7.80;;;5.13;;
49566;SDS011;35472;50.514;30.448;2022-10-17T02:16:09;6.45;;;4.60;;
49566;SDS011;35472;50.514;30.448;2022-10-17T02:19:06;11.45;;;5.32;;
49566;SDS011;35472;50.514;30.448;2022-10-17T02:30:04;11.52;;;5.57;;
49566;SDS011;35472;50.514;30.448;2022-10-17T02:35:26;9.98;;;4.88;;
49566;SDS011;35472;50.514;30.448;2022-10-17T02:37:56;5.78;;;5.18;;
49566;SDS011;35472;50.514;30.448;2022-10-17T02:40:23;8.65;;;5.45;;
49566;SDS011;35472;50.514;30.448;2022-10-17T02:42:52;8.50;;;5.25;;
49566;SDS011;35472;50.514;30.448;2022-10-17T02:45:19;6.65;;;5.00;;
49566;SDS011;35472;50.514;30.448;2022-10-17T02:52:56;6.65;;;4.40;;
49566;SDS011;35472;50.514;30.448;2022-10-17T02:55:32;8.38;;;4.35;;
49566;SDS011;35472;50.514;30.448;2022-10-17T02:58:11;6.22;;;4.93;;
49566;SDS011;35472;50.514;30.448;2022-10-17T03:00:44;6.93;;;4.85;;
49566;SDS011;35472;50.514;30.448;2022-10-17T03:03:20;8.38;;;4.82;;
49566;SDS011;35472;50.514;30.448;2022-10-17T03:05:50;7.18;;;4.30;;
49566;SDS011;35472;50.514;30.448;2022-10-17T03:08:17;6.63;;;4.93;;
49566;SDS011;35472;50.514;30.448;2022-10-17T03:10:42;6.22;;;4.75;;
49566;SDS011;35472;50.514;30.448;2022-10-17T03:13:08;10.02;;;4.93;;
49566;SDS011;35472;50.514;30.448;2022-10-17T03:15:37;7.40;;;5.03;;
49566;SDS011;35472;50.514;30.448;2022-10-17T03:18:02;13.15;;;5.47;;
49566;SDS011;35472;50.514;30.448;2022-10-17T03:20:28;7.65;;;4.97;;
49566;SDS011;35472;50.514;30.448;2022-10-17T03:22:54;12.32;;;5.32;;
49566;SDS011;35472;50.514;30.448;2022-10-17T03:25:20;8.20;;;5.13;;
49566;SDS011;35472;50.514;30.448;2022-10-17T03:27:46;7.50;;;4.43;;
49566;SDS011;35472;50.514;30.448;2022-10-17T03:30:12;7.78;;;5.22;;
49566;SDS011;35472;50.514;30.448;2022-10-17T03:32:37;7.78;;;5.53;;
49566;SDS011;35472;50.514;30.448;2022-10-17T03:35:03;8.48;;;5.53;;
49566;SDS011;35472;50.514;30.448;2022-10-17T03:37:29;6.95;;;4.90;;
49566;SDS011;35472;50.514;30.448;2022-10-17T03:39:54;12.18;;;5.35;;
49566;SDS011;35472;50.514;30.448;2022-10-17T03:42:20;9.65;;;5.65;;
49566;SDS011;35472;50.514;30.448;2022-10-17T03:44:45;7.13;;;4.57;;
49566;SDS011;35472;50.514;30.448;2022-10-17T03:47:11;7.00;;;4.20;;
49566;SDS011;35472;50.514;30.448;2022-10-17T03:49:36;7.18;;;5.07;;
49566;SDS011;35472;50.514;30.448;2022-10-17T03:52:02;9.27;;;4.72;;
49566;SDS011;35472;50.514;30.448;2022-10-17T03:54:27;5.90;;;4.72;;
49566;SDS011;35472;50.514;30.448;2022-10-17T03:56:53;7.32;;;4.60;;
49566;SDS011;35472;50.514;30.448;2022-10-17T03:59:19;10.00;;;4.93;;
49566;SDS011;35472;50.514;30.448;2022-10-17T04:01:52;6.30;;;4.90;;
49566;SDS011;35472;50.514;30.448;2022-10-17T04:04:18;9.75;;;5.32;;
49566;SDS011;35472;50.514;30.448;2022-10-17T04:06:43;10.00;;;5.93;;
49566;SDS011;35472;50.514;30.448;2022-10-17T04:09:09;6.78;;;4.95;;
49566;SDS011;35472;50.514;30.448;2022-10-17T04:11:55;9.43;;;5.43;;
49566;SDS011;35472;50.514;30.448;2022-10-17T04:14:21;9.85;;;4.47;;
49566;SDS011;35472;50.514;30.448;2022-10-17T04:16:46;9.80;;;5.50;;
49566;SDS011;35472;50.514;30.448;2022-10-17T04:19:16;8.88;;;4.85;;
49566;SDS011;35472;50.514;30.448;2022-10-17T04:21:44;9.07;;;5.63;;
49566;SDS011;35472;50.514;30.448;2022-10-17T04:24:10;9.90;;;6.60;;
49566;SDS011;35472;50.514;30.448;2022-10-17T04:26:56;12.77;;;5.00;;
49566;SDS011;35472;50.514;30.448;2022-10-17T04:29:25;10.02;;;5.22;;
49566;SDS011;35472;50.514;30.448;2022-10-17T04:31:55;8.10;;;4.85;;
49566;SDS011;35472;50.514;30.448;2022-10-17T04:34:28;8.45;;;5.35;;
49566;SDS011;35472;50.514;30.448;2022-10-17T04:36:53;8.95;;;4.97;;
49566;SDS011;35472;50.514;30.448;2022-10-17T04:39:20;9.00;;;5.15;;
49566;SDS011;35472;50.514;30.448;2022-10-17T04:41:45;12.70;;;5.45;;
49566;SDS011;35472;50.514;30.448;2022-10-17T04:44:11;8.80;;;5.20;;
49566;SDS011;35472;50.514;30.448;2022-10-17T04:46:41;7.60;;;5.15;;
49566;SDS011;35472;50.514;30.448;2022-10-17T04:49:07;8.73;;;5.50;;
49566;SDS011;35472;50.514;30.448;2022-10-17T04:51:32;10.50;;;5.50;;
49566;SDS011;35472;50.514;30.448;2022-10-17T04:54:16;18.42;;;5.90;;
49566;SDS011;35472;50.514;30.448;2022-10-17T04:56:45;8.05;;;4.85;;
49566;SDS011;35472;50.514;30.448;2022-10-17T04:59:11;8.95;;;5.03;;
49566;SDS011;35472;50.514;30.448;2022-10-17T05:01:38;13.30;;;5.28;;
49566;SDS011;35472;50.514;30.448;2022-10-17T05:04:03;9.75;;;5.68;;
49566;SDS011;35472;50.514;30.448;2022-10-17T05:06:29;9.00;;;4.95;;
49566;SDS011;35472;50.514;30.448;2022-10-17T05:09:14;16.73;;;6.10;;
49566;SDS011;35472;50.514;30.448;2022-10-17T05:11:40;7.07;;;5.35;;
49566;SDS011;35472;50.514;30.448;2022-10-17T05:14:07;8.48;;;5.28;;
49566;SDS011;35472;50.514;30.448;2022-10-17T05:16:32;13.57;;;5.57;;
49566;SDS011;35472;50.514;30.448;2022-10-17T05:18:58;13.20;;;8.68;;
49566;SDS011;35472;50.514;30.448;2022-10-17T05:21:28;14.90;;;7.40;;
49566;SDS011;35472;50.514;30.448;2022-10-17T05:23:54;20.20;;;7.53;;
49566;SDS011;35472;50.514;30.448;2022-10-17T05:26:21;7.40;;;5.30;;
49566;SDS011;35472;50.514;30.448;2022-10-17T05:28:47;7.47;;;5.40;;
49566;SDS011;35472;50.514;30.448;2022-10-17T05:31:13;13.07;;;5.10;;
49566;SDS011;35472;50.514;30.448;2022-10-17T05:33:38;8.93;;;4.78;;
49566;SDS011;35472;50.514;30.448;2022-10-17T05:36:05;8.60;;;5.68;;
49566;SDS011;35472;50.514;30.448;2022-10-17T05:38:31;10.10;;;6.13;;
49566;SDS011;35472;50.514;30.448;2022-10-17T05:41:00;8.07;;;5.05;;
49566;SDS011;35472;50.514;30.448;2022-10-17T05:43:28;7.15;;;5.00;;
49566;SDS011;35472;50.514;30.448;2022-10-17T05:45:54;5.88;;;5.07;;
49566;SDS011;35472;50.514;30.448;2022-10-17T05:48:20;7.57;;;5.60;;
49566;SDS011;35472;50.514;30.448;2022-10-17T05:50:47;10.32;;;5.53;;
49566;SDS011;35472;50.514;30.448;2022-10-17T05:53:15;10.30;;;5.30;;
49566;SDS011;35472;50.514;30.448;2022-10-17T05:55:45;8.95;;;5.78;;
49566;SDS011;35472;50.514;30.448;2022-10-17T05:58:18;12.40;;;6.53;;
49566;SDS011;35472;50.514;30.448;2022-10-17T06:00:46;8.02;;;6.15;;
49566;SDS011;35472;50.514;30.448;2022-10-17T06:03:12;12.32;;;6.55;;
49566;SDS011;35472;50.514;30.448;2022-10-17T06:05:37;12.73;;;6.65;;
49566;SDS011;35472;50.514;30.448;2022-10-17T06:08:03;9.45;;;6.57;;
49566;SDS011;35472;50.514;30.448;2022-10-17T06:10:32;12.57;;;7.53;;
49566;SDS011;35472;50.514;30.448;2022-10-17T06:12:58;10.65;;;6.32;;
49566;SDS011;35472;50.514;30.448;2022-10-17T06:15:24;11.40;;;7.20;;
49566;SDS011;35472;50.514;30.448;2022-10-17T06:17:56;12.90;;;6.88;;
49566;SDS011;35472;50.514;30.448;2022-10-17T06:20:22;11.35;;;6.40;;
49566;SDS011;35472;50.514;30.448;2022-10-17T06:22:48;13.27;;;6.57;;
49566;SDS011;35472;50.514;30.448;2022-10-17T06:25:20;9.75;;;6.35;;
49566;SDS011;35472;50.514;30.448;2022-10-17T06:27:46;11.55;;;6.68;;
49566;SDS011;35472;50.514;30.448;2022-10-17T06:30:11;14.75;;;7.75;;
49566;SDS011;35472;50.514;30.448;2022-10-17T06:32:36;7.97;;;6.20;;
49566;SDS011;35472;50.514;30.448;2022-10-17T06:35:02;13.25;;;6.50;;
49566;SDS011;35472;50.514;30.448;2022-10-17T06:37:32;9.80;;;5.68;;
49566;SDS011;35472;50.514;30.448;2022-10-17T06:40:00;10.30;;;6.65;;
49566;SDS011;35472;50.514;30.448;2022-10-17T06:42:26;9.65;;;6.22;;
49566;SDS011;35472;50.514;30.448;2022-10-17T06:45:09;10.15;;;6.53;;
49566;SDS011;35472;50.514;30.448;2022-10-17T06:47:40;9.27;;;6.03;;
49566;SDS011;35472;50.514;30.448;2022-10-17T06:50:20;9.18;;;6.00;;
49566;SDS011;35472;50.514;30.448;2022-10-17T06:52:56;9.20;;;5.95;;
49566;SDS011;35472;50.514;30.448;2022-10-17T06:55:40;16.95;;;7.50;;
49566;SDS011;35472;50.514;30.448;2022-10-17T06:58:15;16.65;;;7.50;;
49566;SDS011;35472;50.514;30.448;2022-10-17T07:01:03;21.05;;;8.05;;
49566;SDS011;35472;50.514;30.448;2022-10-17T07:03:30;9.98;;;6.90;;
49566;SDS011;35472;50.514;30.448;2022-10-17T07:05:56;16.48;;;7.63;;
49566;SDS011;35472;50.514;30.448;2022-10-17T07:08:23;8.30;;;6.90;;
49566;SDS011;35472;50.514;30.448;2022-10-17T07:10:48;16.13;;;6.38;;
49566;SDS011;35472;50.514;30.448;2022-10-17T07:13:14;12.52;;;5.90;;
49566;SDS011;35472;50.514;30.448;2022-10-17T07:15:40;8.48;;;5.90;;
49566;SDS011;35472;50.514;30.448;2022-10-17T07:18:08;11.02;;;6.57;;
49566;SDS011;35472;50.514;30.448;2022-10-17T07:20:34;11.70;;;7.53;;
49566;SDS011;35472;50.514;30.448;2022-10-17T07:23:00;11.20;;;5.95;;
49566;SDS011;35472;50.514;30.448;2022-10-17T07:25:25;11.43;;;6.13;;
49566;SDS011;35472;50.514;30.448;2022-10-17T07:27:55;11.57;;;5.57;;
49566;SDS011;35472;50.514;30.448;2022-10-17T07:30:21;8.70;;;6.07;;
49566;SDS011;35472;50.514;30.448;2022-10-17T07:32:55;10.18;;;6.18;;
49566;SDS011;35472;50.514;30.448;2022-10-17T07:35:20;7.80;;;5.85;;
49566;SDS011;35472;50.514;30.448;2022-10-17T07:37:46;10.05;;;5.00;;
49566;SDS011;35472;50.514;30.448;2022-10-17T07:40:13;8.05;;;5.07;;
49566;SDS011;35472;50.514;30.448;2022-10-17T07:42:39;11.52;;;5.45;;
49566;SDS011;35472;50.514;30.448;2022-10-17T07:45:05;7.40;;;4.85;;
49566;SDS011;35472;50.514;30.448;2022-10-17T07:47:32;8.23;;;5.50;;
49566;SDS011;35472;50.514;30.448;2022-10-17T07:50:00;11.88;;;5.13;;
49566;SDS011;35472;50.514;30.448;2022-10-17T07:52:26;8.88;;;3.97;;
49566;SDS011;35472;50.514;30.448;2022-10-17T07:54:52;9.63;;;5.30;;
49566;SDS011;35472;50.514;30.448;2022-10-17T07:57:17;5.88;;;4.07;;
49566;SDS011;35472;50.514;30.448;2022-10-17T07:59:42;6.97;;;4.50;;
49566;SDS011;35472;50.514;30.448;2022-10-17T08:02:19;10.25;;;4.38;;
49566;SDS011;35472;50.514;30.448;2022-10-17T08:04:47;7.93;;;4.25;;
49566;SDS011;35472;50.514;30.448;2022-10-17T08:07:12;5.43;;;3.63;;
49566;SDS011;35472;50.514;30.448;2022-10-17T08:09:37;7.80;;;4.75;;
49566;SDS011;35472;50.514;30.448;2022-10-17T08:12:03;8.68;;;4.68;;
49566;SDS011;35472;50.514;30.448;2022-10-17T08:14:28;5.93;;;3.85;;
49566;SDS011;35472;50.514;30.448;2022-10-17T08:16:54;5.80;;;4.25;;
49566;SDS011;35472;50.514;30.448;2022-10-17T08:19:19;9.50;;;3.97;;
49566;SDS011;35472;50.514;30.448;2022-10-17T08:21:44;6.72;;;4.45;;
49566;SDS011;35472;50.514;30.448;2022-10-17T08:24:11;12.43;;;3.97;;
49566;SDS011;35472;50.514;30.448;2022-10-17T08:26:36;4.30;;;3.72;;
49566;SDS011;35472;50.514;30.448;2022-10-17T08:29:02;6.40;;;4.13;;
49566;SDS011;35472;50.514;30.448;2022-10-17T08:31:27;6.95;;;4.35;;
49566;SDS011;35472;50.514;30.448;2022-10-17T08:33:53;6.80;;;3.75;;
49566;SDS011;35472;50.514;30.448;2022-10-17T08:36:18;6.93;;;4.95;;
49566;SDS011;35472;50.514;30.448;2022-10-17T08:38:45;8.32;;;3.80;;
49566;SDS011;35472;50.514;30.448;2022-10-17T08:41:55;8.60;;;4.80;;
49566;SDS011;35472;50.514;30.448;2022-10-17T08:46:28;7.55;;;4.32;;
49566;SDS011;35472;50.514;30.448;2022-10-17T08:48:58;7.25;;;4.32;;
49566;SDS011;35472;50.514;30.448;2022-10-17T08:51:27;5.03;;;4.45;;
49566;SDS011;35472;50.514;30.448;2022-10-17T08:54:03;4.38;;;3.65;;
49566;SDS011;35472;50.514;30.448;2022-10-17T08:56:34;11.90;;;4.68;;
49566;SDS011;35472;50.514;30.448;2022-10-17T08:59:12;5.30;;;3.88;;
49566;SDS011;35472;50.514;30.448;2022-10-17T09:04:45;8.05;;;4.13;;
49566;SDS011;35472;50.514;30.448;2022-10-17T09:10:15;7.00;;;4.60;;
49566;SDS011;35472;50.514;30.448;2022-10-17T09:18:29;9.30;;;4.40;;
49566;SDS011;35472;50.514;30.448;2022-10-17T09:21:04;12.30;;;5.47;;
49566;SDS011;35472;50.514;30.448;2022-10-17T09:26:13;7.30;;;4.28;;
49566;SDS011;35472;50.514;30.448;2022-10-17T09:28:40;10.15;;;4.53;;
49566;SDS011;35472;50.514;30.448;2022-10-17T09:31:19;5.82;;;4.43;;
49566;SDS011;35472;50.514;30.448;2022-10-17T09:33:48;5.20;;;3.80;;
49566;SDS011;35472;50.514;30.448;2022-10-17T09:36:18;7.50;;;4.82;;
49566;SDS011;35472;50.514;30.448;2022-10-17T09:38:47;7.18;;;4.68;;
49566;SDS011;35472;50.514;30.448;2022-10-17T09:41:17;6.65;;;5.82;;
49566;SDS011;35472;50.514;30.448;2022-10-17T09:43:47;11.35;;;5.90;;
49566;SDS011;35472;50.514;30.448;2022-10-17T09:46:19;9.27;;;5.85;;
49566;SDS011;35472;50.514;30.448;2022-10-17T09:48:53;7.45;;;4.43;;
49566;SDS011;35472;50.514;30.448;2022-10-17T09:51:25;12.75;;;4.95;;
49566;SDS011;35472;50.514;30.448;2022-10-17T09:53:55;15.85;;;5.88;;
49566;SDS011;35472;50.514;30.448;2022-10-17T09:56:25;14.52;;;5.97;;
49566;SDS011;35472;50.514;30.448;2022-10-17T09:58:52;8.55;;;4.45;;
49566;SDS011;35472;50.514;30.448;2022-10-17T10:01:25;9.65;;;4.72;;
49566;SDS011;35472;50.514;30.448;2022-10-17T10:04:15;11.68;;;5.15;;
49566;SDS011;35472;50.514;30.448;2022-10-17T10:06:40;12.93;;;4.80;;
49566;SDS011;35472;50.514;30.448;2022-10-17T10:09:24;10.23;;;4.35;;
49566;SDS011;35472;50.514;30.448;2022-10-17T10:11:54;11.68;;;5.00;;
49566;SDS011;35472;50.514;30.448;2022-10-17T10:16:48;13.57;;;4.68;;
49566;SDS011;35472;50.514;30.448;2022-10-17T10:19:25;8.70;;;5.40;;
49566;SDS011;35472;50.514;30.448;2022-10-17T10:21:58;9.70;;;5.07;;
49566;SDS011;35472;50.514;30.448;2022-10-17T10:24:26;7.75;;;4.40;;
49566;SDS011;35472;50.514;30.448;2022-10-17T10:26:52;8.95;;;5.25;;
49566;SDS011;35472;50.514;30.448;2022-10-17T10:29:21;9.00;;;4.18;;
49566;SDS011;35472;50.514;30.448;2022-10-17T10:31:53;8.45;;;4.22;;
49566;SDS011;35472;50.514;30.448;2022-10-17T10:34:26;18.33;;;4.90;;
49566;SDS011;35472;50.514;30.448;2022-10-17T10:36:55;9.27;;;4.68;;
49566;SDS011;35472;50.514;30.448;2022-10-17T10:42:34;7.18;;;4.60;;
49566;SDS011;35472;50.514;30.448;2022-10-17T10:47:54;7.53;;;5.07;;
49566;SDS011;35472;50.514;30.448;2022-10-17T10:50:23;4.68;;;3.60;;
49566;SDS011;35472;50.514;30.448;2022-10-17T10:53:18;7.05;;;4.45;;
49566;SDS011;35472;50.514;30.448;2022-10-17T10:56:00;4.95;;;3.53;;
49566;SDS011;35472;50.514;30.448;2022-10-17T11:00:59;8.38;;;3.53;;
49566;SDS011;35472;50.514;30.448;2022-10-17T11:03:40;7.47;;;3.50;;
49566;SDS011;35472;50.514;30.448;2022-10-17T11:06:22;7.50;;;4.03;;
49566;SDS011;35472;50.514;30.448;2022-10-17T11:11:36;10.73;;;3.92;;
49566;SDS011;35472;50.514;30.448;2022-10-17T11:16:53;4.15;;;3.25;;
49566;SDS011;35472;50.514;30.448;2022-10-17T11:19:34;5.15;;;4.07;;
49566;SDS011;35472;50.514;30.448;2022-10-17T11:22:48;8.13;;;4.03;;
49566;SDS011;35472;50.514;30.448;2022-10-17T11:25:08;8.18;;;4.35;;
49566;SDS011;35472;50.514;30.448;2022-10-17T11:27:43;6.63;;;3.70;;
49566;SDS011;35472;50.514;30.448;2022-10-17T11:30:12;6.75;;;3.90;;
49566;SDS011;35472;50.514;30.448;2022-10-17T11:35:07;7.65;;;4.43;;
49566;SDS011;35472;50.514;30.448;2022-10-17T11:37:43;11.77;;;4.68;;
49566;SDS011;35472;50.514;30.448;2022-10-17T11:40:24;5.05;;;3.28;;
49566;SDS011;35472;50.514;30.448;2022-10-17T11:42:59;8.80;;;4.07;;
49566;SDS011;35472;50.514;30.448;2022-10-17T11:45:28;12.77;;;4.25;;
49566;SDS011;35472;50.514;30.448;2022-10-17T11:48:05;7.03;;;4.60;;
49566;SDS011;35472;50.514;30.448;2022-10-17T11:50:37;7.10;;;4.00;;
49566;SDS011;35472;50.514;30.448;2022-10-17T11:53:19;4.00;;;3.50;;
49566;SDS011;35472;50.514;30.448;2022-10-17T11:55:52;8.18;;;3.58;;
49566;SDS011;35472;50.514;30.448;2022-10-17T12:04:04;6.05;;;3.75;;
49566;SDS011;35472;50.514;30.448;2022-10-17T12:09:43;6.70;;;3.92;;
49566;SDS011;35472;50.514;30.448;2022-10-17T12:12:10;7.70;;;4.57;;
49566;SDS011;35472;50.514;30.448;2022-10-17T12:14:51;5.70;;;3.63;;
49566;SDS011;35472;50.514;30.448;2022-10-17T12:17:27;5.20;;;3.80;;
49566;SDS011;35472;50.514;30.448;2022-10-17T12:22:46;6.03;;;4.20;;
49566;SDS011;35472;50.514;30.448;2022-10-17T12:25:17;7.28;;;4.05;;
49566;SDS011;35472;50.514;30.448;2022-10-17T12:27:45;7.65;;;3.50;;
49566;SDS011;35472;50.514;30.448;2022-10-17T12:35:21;3.55;;;2.85;;
49566;SDS011;35472;50.514;30.448;2022-10-17T12:43:30;4.78;;;3.15;;
49566;SDS011;35472;50.514;30.448;2022-10-17T12:45:57;4.47;;;3.33;;
49566;SDS011;35472;50.514;30.448;2022-10-17T12:48:57;4.60;;;3.45;;
49566;SDS011;35472;50.514;30.448;2022-10-17T12:56:21;7.25;;;3.78;;
49566;SDS011;35472;50.514;30.448;2022-10-17T12:58:55;8.93;;;3.92;;
49566;SDS011;35472;50.514;30.448;2022-10-17T13:01:26;7.18;;;3.88;;
49566;SDS011;35472;50.514;30.448;2022-10-17T13:03:54;9.23;;;4.05;;
49566;SDS011;35472;50.514;30.448;2022-10-17T13:06:22;7.53;;;4.15;;
49566;SDS011;35472;50.514;30.448;2022-10-17T13:08:55;5.90;;;4.18;;
49566;SDS011;35472;50.514;30.448;2022-10-17T13:11:23;7.25;;;3.97;;
49566;SDS011;35472;50.514;30.448;2022-10-17T13:13:52;7.22;;;3.58;;
49566;SDS011;35472;50.514;30.448;2022-10-17T13:16:29;5.30;;;3.70;;
49566;SDS011;35472;50.514;30.448;2022-10-17T13:19:03;6.60;;;3.30;;
49566;SDS011;35472;50.514;30.448;2022-10-17T13:21:36;5.30;;;4.20;;
49566;SDS011;35472;50.514;30.448;2022-10-17T13:24:18;6.30;;;3.17;;
49566;SDS011;35472;50.514;30.448;2022-10-17T13:26:52;4.25;;;3.10;;
49566;SDS011;35472;50.514;30.448;2022-10-17T13:29:17;4.40;;;3.33;;
49566;SDS011;35472;50.514;30.448;2022-10-17T13:31:50;6.07;;;4.47;;
49566;SDS011;35472;50.514;30.448;2022-10-17T13:34:19;9.18;;;3.67;;
49566;SDS011;35472;50.514;30.448;2022-10-17T13:36:52;4.22;;;2.50;;
49566;SDS011;35472;50.514;30.448;2022-10-17T13:39:21;4.70;;;3.33;;
49566;SDS011;35472;50.514;30.448;2022-10-17T13:41:49;7.93;;;3.78;;
49566;SDS011;35472;50.514;30.448;2022-10-17T13:44:18;5.13;;;3.40;;
49566;SDS011;35472;50.514;30.448;2022-10-17T13:46:46;6.05;;;3.30;;
49566;SDS011;35472;50.514;30.448;2022-10-17T13:49:16;5.07;;;3.03;;
49566;SDS011;35472;50.514;30.448;2022-10-17T13:51:57;5.25;;;3.03;;
49566;SDS011;35472;50.514;30.448;2022-10-17T13:56:58;6.70;;;3.67;;
49566;SDS011;35472;50.514;30.448;2022-10-17T13:59:42;4.63;;;3.53;;
49566;SDS011;35472;50.514;30.448;2022-10-17T14:02:15;8.20;;;3.35;;
49566;SDS011;35472;50.514;30.448;2022-10-17T14:04:43;9.68;;;3.78;;
49566;SDS011;35472;50.514;30.448;2022-10-17T14:07:19;7.05;;;3.65;;
49566;SDS011;35472;50.514;30.448;2022-10-17T14:09:49;4.47;;;3.35;;
49566;SDS011;35472;50.514;30.448;2022-10-17T14:12:15;7.60;;;3.22;;
49566;SDS011;35472;50.514;30.448;2022-10-17T14:14:48;6.90;;;3.10;;
49566;SDS011;35472;50.514;30.448;2022-10-17T14:17:23;5.75;;;3.28;;
49566;SDS011;35472;50.514;30.448;2022-10-17T14:24:46;6.55;;;4.30;;
49566;SDS011;35472;50.514;30.448;2022-10-17T14:27:24;4.93;;;3.10;;
49566;SDS011;35472;50.514;30.448;2022-10-17T14:29:59;10.52;;;3.42;;
49566;SDS011;35472;50.514;30.448;2022-10-17T14:32:48;8.93;;;4.05;;
49566;SDS011;35472;50.514;30.448;2022-10-17T14:35:15;5.75;;;3.53;;
49566;SDS011;35472;50.514;30.448;2022-10-17T14:37:42;4.78;;;3.60;;
49566;SDS011;35472;50.514;30.448;2022-10-17T14:40:17;5.35;;;3.88;;
49566;SDS011;35472;50.514;30.448;2022-10-17T14:42:44;6.85;;;3.72;;
49566;SDS011;35472;50.514;30.448;2022-10-17T14:45:16;4.45;;;3.08;;
49566;SDS011;35472;50.514;30.448;2022-10-17T14:47:48;8.48;;;4.57;;
49566;SDS011;35472;50.514;30.448;2022-10-17T14:55:59;7.07;;;3.35;;
49566;SDS011;35472;50.514;30.448;2022-10-17T14:58:30;4.20;;;3.35;;
49566;SDS011;35472;50.514;30.448;2022-10-17T15:00:58;8.13;;;4.25;;
49566;SDS011;35472;50.514;30.448;2022-10-17T15:03:25;4.70;;;3.33;;
49566;SDS011;35472;50.514;30.448;2022-10-17T15:05:52;9.57;;;4.45;;
49566;SDS011;35472;50.514;30.448;2022-10-17T15:08:19;8.02;;;3.85;;
49566;SDS011;35472;50.514;30.448;2022-10-17T15:10:47;6.15;;;4.47;;
49566;SDS011;35472;50.514;30.448;2022-10-17T15:13:13;8.88;;;4.43;;
49566;SDS011;35472;50.514;30.448;2022-10-17T15:15:40;15.50;;;5.15;;
49566;SDS011;35472;50.514;30.448;2022-10-17T15:18:06;7.45;;;4.10;;
49566;SDS011;35472;50.514;30.448;2022-10-17T15:20:35;11.50;;;5.00;;
49566;SDS011;35472;50.514;30.448;2022-10-17T15:23:01;10.60;;;5.90;;
49566;SDS011;35472;50.514;30.448;2022-10-17T15:25:27;10.23;;;5.85;;
49566;SDS011;35472;50.514;30.448;2022-10-17T15:27:54;6.85;;;5.20;;
49566;SDS011;35472;50.514;30.448;2022-10-17T15:30:24;10.88;;;5.03;;
49566;SDS011;35472;50.514;30.448;2022-10-17T15:32:56;11.98;;;6.00;;
49566;SDS011;35472;50.514;30.448;2022-10-17T15:35:21;9.20;;;5.22;;
49566;SDS011;35472;50.514;30.448;2022-10-17T15:37:47;10.38;;;5.93;;
49566;SDS011;35472;50.514;30.448;2022-10-17T15:40:16;9.43;;;5.15;;
49566;SDS011;35472;50.514;30.448;2022-10-17T15:42:44;8.10;;;5.75;;
49566;SDS011;35472;50.514;30.448;2022-10-17T15:45:10;11.40;;;6.00;;
49566;SDS011;35472;50.514;30.448;2022-10-17T15:47:37;11.52;;;6.65;;
49566;SDS011;35472;50.514;30.448;2022-10-17T15:50:03;13.38;;;6.25;;
49566;SDS011;35472;50.514;30.448;2022-10-17T15:52:30;10.18;;;6.47;;
49566;SDS011;35472;50.514;30.448;2022-10-17T15:54:56;10.00;;;6.20;;
49566;SDS011;35472;50.514;30.448;2022-10-17T15:57:22;13.32;;;5.43;;
49566;SDS011;35472;50.514;30.448;2022-10-17T15:59:50;9.55;;;5.80;;
49566;SDS011;35472;50.514;30.448;2022-10-17T16:02:17;12.02;;;6.20;;
49566;SDS011;35472;50.514;30.448;2022-10-17T16:04:44;9.07;;;5.80;;
49566;SDS011;35472;50.514;30.448;2022-10-17T16:07:10;11.40;;;5.10;;
49566;SDS011;35472;50.514;30.448;2022-10-17T16:09:35;8.70;;;6.07;;
49566;SDS011;35472;50.514;30.448;2022-10-17T16:12:01;8.90;;;5.15;;
49566;SDS011;35472;50.514;30.448;2022-10-17T16:14:28;10.82;;;5.32;;
49566;SDS011;35472;50.514;30.448;2022-10-17T16:16:55;7.93;;;4.55;;
49566;SDS011;35472;50.514;30.448;2022-10-17T16:19:24;8.82;;;4.85;;
49566;SDS011;35472;50.514;30.448;2022-10-17T16:21:54;8.57;;;4.30;;
49566;SDS011;35472;50.514;30.448;2022-10-17T16:24:20;7.68;;;4.88;;
49566;SDS011;35472;50.514;30.448;2022-10-17T16:26:46;7.82;;;5.10;;
49566;SDS011;35472;50.514;30.448;2022-10-17T16:29:11;9.98;;;4.93;;
49566;SDS011;35472;50.514;30.448;2022-10-17T16:31:38;8.85;;;3.88;;
49566;SDS011;35472;50.514;30.448;2022-10-17T16:34:05;7.68;;;4.63;;
49566;SDS011;35472;50.514;30.448;2022-10-17T16:36:33;7.75;;;5.30;;
49566;SDS011;35472;50.514;30.448;2022-10-17T16:38:59;8.57;;;4.30;;
49566;SDS011;35472;50.514;30.448;2022-10-17T16:43:55;7.65;;;4.10;;